sensor_id;sensor_type;location;lat;lon;timestamp;P1;durP1;ratioP1;P2;durP2;ratioP2
75550;SDS011;65071;53.082;18.218;2024-02-16T00:00:07;28.90;;;16.40;;
75550;SDS011;65071;53.082;18.218;2024-02-16T00:02:40;30.90;;;17.00;;
75550;SDS011;65071;53.082;18.218;2024-02-16T00:05:07;27.00;;;16.80;;
75550;SDS011;65071;53.082;18.218;2024-02-16T00:07:34;28.60;;;16.30;;
75550;SDS011;65071;53.082;18.218;2024-02-16T00:10:00;27.50;;;16.60;;
75550;SDS011;65071;53.082;18.218;2024-02-16T00:12:27;29.70;;;16.60;;
75550;SDS011;65071;53.082;18.218;2024-02-16T00:14:53;29.20;;;16.70;;
75550;SDS011;65071;53.082;18.218;2024-02-16T00:17:20;27.80;;;16.00;;
75550;SDS011;65071;53.082;18.218;2024-02-16T00:19:47;30.70;;;16.60;;
75550;SDS011;65071;53.082;18.218;2024-02-16T00:22:13;31.10;;;16.40;;
75550;SDS011;65071;53.082;18.218;2024-02-16T00:24:39;27.00;;;15.40;;
75550;SDS011;65071;53.082;18.218;2024-02-16T00:27:07;28.60;;;15.80;;
75550;SDS011;65071;53.082;18.218;2024-02-16T00:29:34;25.70;;;15.00;;
75550;SDS011;65071;53.082;18.218;2024-02-16T00:32:02;25.50;;;14.40;;
75550;SDS011;65071;53.082;18.218;2024-02-16T00:34:29;27.60;;;15.90;;
75550;SDS011;65071;53.082;18.218;2024-02-16T00:36:55;24.80;;;13.80;;
75550;SDS011;65071;53.082;18.218;2024-02-16T00:39:22;24.90;;;14.40;;
75550;SDS011;65071;53.082;18.218;2024-02-16T00:41:48;26.70;;;15.10;;
75550;SDS011;65071;53.082;18.218;2024-02-16T00:44:16;23.90;;;13.80;;
75550;SDS011;65071;53.082;18.218;2024-02-16T00:46:43;24.90;;;13.90;;
75550;SDS011;65071;53.082;18.218;2024-02-16T00:49:11;23.40;;;14.50;;
75550;SDS011;65071;53.082;18.218;2024-02-16T00:51:37;24.90;;;14.90;;
75550;SDS011;65071;53.082;18.218;2024-02-16T00:54:04;25.10;;;14.40;;
75550;SDS011;65071;53.082;18.218;2024-02-16T00:56:32;24.80;;;13.60;;
75550;SDS011;65071;53.082;18.218;2024-02-16T00:58:58;25.90;;;13.90;;
75550;SDS011;65071;53.082;18.218;2024-02-16T01:01:24;27.50;;;16.10;;
75550;SDS011;65071;53.082;18.218;2024-02-16T01:03:52;30.30;;;15.10;;
75550;SDS011;65071;53.082;18.218;2024-02-16T01:06:19;27.00;;;15.40;;
75550;SDS011;65071;53.082;18.218;2024-02-16T01:08:46;23.20;;;14.10;;
75550;SDS011;65071;53.082;18.218;2024-02-16T01:11:12;24.50;;;14.50;;
75550;SDS011;65071;53.082;18.218;2024-02-16T01:13:39;24.90;;;14.60;;
75550;SDS011;65071;53.082;18.218;2024-02-16T01:16:06;24.10;;;14.10;;
75550;SDS011;65071;53.082;18.218;2024-02-16T01:18:33;25.20;;;14.50;;
75550;SDS011;65071;53.082;18.218;2024-02-16T01:21:02;27.80;;;15.40;;
75550;SDS011;65071;53.082;18.218;2024-02-16T01:23:29;26.50;;;15.60;;
75550;SDS011;65071;53.082;18.218;2024-02-16T01:25:56;24.30;;;14.60;;
75550;SDS011;65071;53.082;18.218;2024-02-16T01:28:22;25.60;;;13.70;;
75550;SDS011;65071;53.082;18.218;2024-02-16T01:30:49;25.20;;;14.90;;
75550;SDS011;65071;53.082;18.218;2024-02-16T01:33:16;25.30;;;14.50;;
75550;SDS011;65071;53.082;18.218;2024-02-16T01:35:42;26.80;;;14.90;;
75550;SDS011;65071;53.082;18.218;2024-02-16T01:38:09;25.90;;;14.90;;
75550;SDS011;65071;53.082;18.218;2024-02-16T01:40:35;27.50;;;15.70;;
75550;SDS011;65071;53.082;18.218;2024-02-16T01:43:02;30.70;;;15.70;;
75550;SDS011;65071;53.082;18.218;2024-02-16T01:45:28;27.70;;;15.80;;
75550;SDS011;65071;53.082;18.218;2024-02-16T01:47:55;26.80;;;15.70;;
75550;SDS011;65071;53.082;18.218;2024-02-16T01:50:21;25.70;;;14.80;;
75550;SDS011;65071;53.082;18.218;2024-02-16T01:52:48;30.40;;;15.70;;
75550;SDS011;65071;53.082;18.218;2024-02-16T01:55:15;27.70;;;15.80;;
75550;SDS011;65071;53.082;18.218;2024-02-16T01:57:46;24.70;;;14.10;;
75550;SDS011;65071;53.082;18.218;2024-02-16T02:00:14;27.10;;;15.10;;
75550;SDS011;65071;53.082;18.218;2024-02-16T02:02:41;27.70;;;14.00;;
75550;SDS011;65071;53.082;18.218;2024-02-16T02:05:10;22.20;;;13.70;;
75550;SDS011;65071;53.082;18.218;2024-02-16T02:07:37;26.30;;;15.20;;
75550;SDS011;65071;53.082;18.218;2024-02-16T02:10:04;21.50;;;12.80;;
75550;SDS011;65071;53.082;18.218;2024-02-16T02:12:30;21.40;;;13.60;;
75550;SDS011;65071;53.082;18.218;2024-02-16T02:14:57;24.80;;;14.50;;
75550;SDS011;65071;53.082;18.218;2024-02-16T02:17:23;25.40;;;14.60;;
75550;SDS011;65071;53.082;18.218;2024-02-16T02:19:49;22.30;;;14.00;;
75550;SDS011;65071;53.082;18.218;2024-02-16T02:22:16;24.80;;;14.00;;
75550;SDS011;65071;53.082;18.218;2024-02-16T02:24:44;24.00;;;14.20;;
75550;SDS011;65071;53.082;18.218;2024-02-16T02:27:12;25.80;;;15.80;;
75550;SDS011;65071;53.082;18.218;2024-02-16T02:29:39;26.30;;;16.00;;
75550;SDS011;65071;53.082;18.218;2024-02-16T02:32:06;27.30;;;15.60;;
75550;SDS011;65071;53.082;18.218;2024-02-16T02:34:34;27.50;;;14.90;;
75550;SDS011;65071;53.082;18.218;2024-02-16T02:37:02;24.60;;;14.20;;
75550;SDS011;65071;53.082;18.218;2024-02-16T02:39:30;26.30;;;14.80;;
75550;SDS011;65071;53.082;18.218;2024-02-16T02:41:56;25.80;;;14.40;;
75550;SDS011;65071;53.082;18.218;2024-02-16T02:44:24;24.00;;;14.10;;
75550;SDS011;65071;53.082;18.218;2024-02-16T02:46:51;26.50;;;14.80;;
75550;SDS011;65071;53.082;18.218;2024-02-16T02:49:18;23.70;;;14.50;;
75550;SDS011;65071;53.082;18.218;2024-02-16T02:51:44;25.20;;;14.60;;
75550;SDS011;65071;53.082;18.218;2024-02-16T02:54:11;24.10;;;14.30;;
75550;SDS011;65071;53.082;18.218;2024-02-16T02:56:37;25.80;;;14.50;;
75550;SDS011;65071;53.082;18.218;2024-02-16T02:59:03;23.50;;;14.20;;
75550;SDS011;65071;53.082;18.218;2024-02-16T03:01:32;23.90;;;14.70;;
75550;SDS011;65071;53.082;18.218;2024-02-16T03:03:58;24.40;;;14.20;;
75550;SDS011;65071;53.082;18.218;2024-02-16T03:06:26;27.80;;;14.60;;
75550;SDS011;65071;53.082;18.218;2024-02-16T03:08:52;24.10;;;13.20;;
75550;SDS011;65071;53.082;18.218;2024-02-16T03:11:18;21.20;;;11.90;;
75550;SDS011;65071;53.082;18.218;2024-02-16T03:13:45;22.80;;;13.30;;
75550;SDS011;65071;53.082;18.218;2024-02-16T03:16:11;27.30;;;14.20;;
75550;SDS011;65071;53.082;18.218;2024-02-16T03:18:37;21.70;;;12.20;;
75550;SDS011;65071;53.082;18.218;2024-02-16T03:21:05;25.60;;;15.20;;
75550;SDS011;65071;53.082;18.218;2024-02-16T03:23:31;22.50;;;12.60;;
75550;SDS011;65071;53.082;18.218;2024-02-16T03:25:58;26.60;;;14.30;;
75550;SDS011;65071;53.082;18.218;2024-02-16T03:28:24;32.40;;;15.70;;
75550;SDS011;65071;53.082;18.218;2024-02-16T03:30:50;23.00;;;13.50;;
75550;SDS011;65071;53.082;18.218;2024-02-16T03:33:16;25.70;;;14.80;;
75550;SDS011;65071;53.082;18.218;2024-02-16T03:35:43;22.40;;;13.20;;
75550;SDS011;65071;53.082;18.218;2024-02-16T03:38:09;24.90;;;14.20;;
75550;SDS011;65071;53.082;18.218;2024-02-16T03:40:36;28.10;;;14.20;;
75550;SDS011;65071;53.082;18.218;2024-02-16T03:43:03;25.60;;;14.20;;
75550;SDS011;65071;53.082;18.218;2024-02-16T03:45:29;19.90;;;11.40;;
75550;SDS011;65071;53.082;18.218;2024-02-16T03:47:55;24.90;;;14.00;;
75550;SDS011;65071;53.082;18.218;2024-02-16T03:50:22;27.00;;;13.90;;
75550;SDS011;65071;53.082;18.218;2024-02-16T03:52:48;23.80;;;12.60;;
75550;SDS011;65071;53.082;18.218;2024-02-16T03:55:15;24.40;;;15.10;;
75550;SDS011;65071;53.082;18.218;2024-02-16T03:57:41;24.70;;;14.20;;
75550;SDS011;65071;53.082;18.218;2024-02-16T04:00:08;25.90;;;15.70;;
75550;SDS011;65071;53.082;18.218;2024-02-16T04:02:40;24.90;;;14.10;;
75550;SDS011;65071;53.082;18.218;2024-02-16T04:05:07;25.50;;;14.10;;
75550;SDS011;65071;53.082;18.218;2024-02-16T04:07:34;26.00;;;14.90;;
75550;SDS011;65071;53.082;18.218;2024-02-16T04:10:01;26.20;;;14.50;;
75550;SDS011;65071;53.082;18.218;2024-02-16T04:12:27;21.10;;;11.70;;
75550;SDS011;65071;53.082;18.218;2024-02-16T04:14:53;25.50;;;13.60;;
75550;SDS011;65071;53.082;18.218;2024-02-16T04:17:20;22.00;;;13.10;;
75550;SDS011;65071;53.082;18.218;2024-02-16T04:19:46;27.60;;;14.60;;
75550;SDS011;65071;53.082;18.218;2024-02-16T04:22:12;25.10;;;13.90;;
75550;SDS011;65071;53.082;18.218;2024-02-16T04:24:39;24.50;;;13.40;;
75550;SDS011;65071;53.082;18.218;2024-02-16T04:27:05;22.60;;;14.00;;
75550;SDS011;65071;53.082;18.218;2024-02-16T04:29:31;29.20;;;15.50;;
75550;SDS011;65071;53.082;18.218;2024-02-16T04:31:58;26.40;;;15.20;;
75550;SDS011;65071;53.082;18.218;2024-02-16T04:34:24;25.90;;;15.20;;
75550;SDS011;65071;53.082;18.218;2024-02-16T04:36:50;22.40;;;12.10;;
75550;SDS011;65071;53.082;18.218;2024-02-16T04:39:17;22.40;;;12.90;;
75550;SDS011;65071;53.082;18.218;2024-02-16T04:41:43;24.50;;;13.50;;
75550;SDS011;65071;53.082;18.218;2024-02-16T04:44:09;23.40;;;12.90;;
75550;SDS011;65071;53.082;18.218;2024-02-16T04:46:36;27.40;;;13.90;;
75550;SDS011;65071;53.082;18.218;2024-02-16T04:49:04;26.00;;;14.80;;
75550;SDS011;65071;53.082;18.218;2024-02-16T04:51:30;31.10;;;16.30;;
75550;SDS011;65071;53.082;18.218;2024-02-16T04:53:57;28.00;;;15.60;;
75550;SDS011;65071;53.082;18.218;2024-02-16T04:56:23;25.90;;;14.70;;
75550;SDS011;65071;53.082;18.218;2024-02-16T04:58:50;26.90;;;14.90;;
75550;SDS011;65071;53.082;18.218;2024-02-16T05:01:16;25.50;;;14.20;;
75550;SDS011;65071;53.082;18.218;2024-02-16T05:03:42;23.70;;;13.80;;
75550;SDS011;65071;53.082;18.218;2024-02-16T05:06:09;26.10;;;15.00;;
75550;SDS011;65071;53.082;18.218;2024-02-16T05:08:35;24.90;;;15.30;;
75550;SDS011;65071;53.082;18.218;2024-02-16T05:11:02;21.70;;;12.00;;
75550;SDS011;65071;53.082;18.218;2024-02-16T05:13:29;23.20;;;13.20;;
75550;SDS011;65071;53.082;18.218;2024-02-16T05:15:55;18.00;;;10.40;;
75550;SDS011;65071;53.082;18.218;2024-02-16T05:18:22;23.90;;;13.90;;
75550;SDS011;65071;53.082;18.218;2024-02-16T05:20:49;25.80;;;13.50;;
75550;SDS011;65071;53.082;18.218;2024-02-16T05:23:15;25.30;;;14.90;;
75550;SDS011;65071;53.082;18.218;2024-02-16T05:25:41;24.20;;;14.60;;
75550;SDS011;65071;53.082;18.218;2024-02-16T05:28:08;21.90;;;12.80;;
75550;SDS011;65071;53.082;18.218;2024-02-16T05:30:34;24.70;;;14.00;;
75550;SDS011;65071;53.082;18.218;2024-02-16T05:33:00;23.20;;;13.10;;
75550;SDS011;65071;53.082;18.218;2024-02-16T05:35:27;23.30;;;13.10;;
75550;SDS011;65071;53.082;18.218;2024-02-16T05:37:55;26.30;;;14.60;;
75550;SDS011;65071;53.082;18.218;2024-02-16T05:40:21;25.10;;;14.70;;
75550;SDS011;65071;53.082;18.218;2024-02-16T05:42:51;26.90;;;15.70;;
75550;SDS011;65071;53.082;18.218;2024-02-16T05:45:17;20.50;;;11.40;;
75550;SDS011;65071;53.082;18.218;2024-02-16T05:47:44;28.80;;;17.10;;
75550;SDS011;65071;53.082;18.218;2024-02-16T05:50:12;27.80;;;15.90;;
75550;SDS011;65071;53.082;18.218;2024-02-16T05:52:38;29.60;;;17.40;;
75550;SDS011;65071;53.082;18.218;2024-02-16T05:55:06;29.00;;;16.60;;
75550;SDS011;65071;53.082;18.218;2024-02-16T05:57:33;26.00;;;15.40;;
75550;SDS011;65071;53.082;18.218;2024-02-16T06:00:01;25.90;;;15.30;;
75550;SDS011;65071;53.082;18.218;2024-02-16T06:02:34;22.70;;;13.20;;
75550;SDS011;65071;53.082;18.218;2024-02-16T06:05:01;24.90;;;15.20;;
75550;SDS011;65071;53.082;18.218;2024-02-16T06:07:29;26.10;;;15.20;;
75550;SDS011;65071;53.082;18.218;2024-02-16T06:09:58;23.80;;;15.60;;
75550;SDS011;65071;53.082;18.218;2024-02-16T06:12:24;16.10;;;9.60;;
75550;SDS011;65071;53.082;18.218;2024-02-16T06:14:50;24.70;;;14.70;;
75550;SDS011;65071;53.082;18.218;2024-02-16T06:17:18;22.30;;;14.50;;
75550;SDS011;65071;53.082;18.218;2024-02-16T06:19:44;21.00;;;11.50;;
75550;SDS011;65071;53.082;18.218;2024-02-16T06:22:11;25.80;;;13.50;;
75550;SDS011;65071;53.082;18.218;2024-02-16T06:24:38;21.60;;;13.40;;
75550;SDS011;65071;53.082;18.218;2024-02-16T06:27:04;20.10;;;12.70;;
75550;SDS011;65071;53.082;18.218;2024-02-16T06:29:30;19.90;;;11.80;;
75550;SDS011;65071;53.082;18.218;2024-02-16T06:31:57;21.10;;;11.90;;
75550;SDS011;65071;53.082;18.218;2024-02-16T06:34:23;21.50;;;12.20;;
75550;SDS011;65071;53.082;18.218;2024-02-16T06:36:50;25.70;;;14.40;;
75550;SDS011;65071;53.082;18.218;2024-02-16T06:39:16;19.40;;;11.50;;
75550;SDS011;65071;53.082;18.218;2024-02-16T06:41:45;23.50;;;13.60;;
75550;SDS011;65071;53.082;18.218;2024-02-16T06:44:12;24.20;;;13.20;;
75550;SDS011;65071;53.082;18.218;2024-02-16T06:46:39;22.70;;;12.50;;
75550;SDS011;65071;53.082;18.218;2024-02-16T06:49:06;18.90;;;11.10;;
75550;SDS011;65071;53.082;18.218;2024-02-16T06:51:32;22.00;;;12.50;;
75550;SDS011;65071;53.082;18.218;2024-02-16T06:53:58;25.40;;;14.70;;
75550;SDS011;65071;53.082;18.218;2024-02-16T06:56:24;25.80;;;14.30;;
75550;SDS011;65071;53.082;18.218;2024-02-16T06:58:51;21.20;;;11.50;;
75550;SDS011;65071;53.082;18.218;2024-02-16T07:01:17;19.40;;;11.80;;
75550;SDS011;65071;53.082;18.218;2024-02-16T07:03:44;18.00;;;10.90;;
75550;SDS011;65071;53.082;18.218;2024-02-16T07:06:11;22.00;;;12.80;;
75550;SDS011;65071;53.082;18.218;2024-02-16T07:08:40;20.90;;;12.80;;
75550;SDS011;65071;53.082;18.218;2024-02-16T07:11:06;19.60;;;11.80;;
75550;SDS011;65071;53.082;18.218;2024-02-16T07:13:33;22.30;;;13.10;;
75550;SDS011;65071;53.082;18.218;2024-02-16T07:16:02;18.90;;;12.20;;
75550;SDS011;65071;53.082;18.218;2024-02-16T07:18:30;23.70;;;13.60;;
75550;SDS011;65071;53.082;18.218;2024-02-16T07:20:56;23.20;;;13.80;;
75550;SDS011;65071;53.082;18.218;2024-02-16T07:23:23;19.90;;;11.50;;
75550;SDS011;65071;53.082;18.218;2024-02-16T07:25:49;20.30;;;12.10;;
75550;SDS011;65071;53.082;18.218;2024-02-16T07:28:16;21.10;;;12.10;;
75550;SDS011;65071;53.082;18.218;2024-02-16T07:30:42;17.70;;;10.80;;
75550;SDS011;65071;53.082;18.218;2024-02-16T07:33:09;20.20;;;12.60;;
75550;SDS011;65071;53.082;18.218;2024-02-16T07:35:35;24.20;;;12.80;;
75550;SDS011;65071;53.082;18.218;2024-02-16T07:38:02;22.00;;;12.60;;
75550;SDS011;65071;53.082;18.218;2024-02-16T07:40:29;20.20;;;12.70;;
75550;SDS011;65071;53.082;18.218;2024-02-16T07:42:55;20.90;;;12.20;;
75550;SDS011;65071;53.082;18.218;2024-02-16T07:45:22;21.80;;;13.90;;
75550;SDS011;65071;53.082;18.218;2024-02-16T07:47:49;24.60;;;13.40;;
75550;SDS011;65071;53.082;18.218;2024-02-16T07:50:18;23.30;;;14.20;;
75550;SDS011;65071;53.082;18.218;2024-02-16T07:52:46;22.60;;;13.70;;
75550;SDS011;65071;53.082;18.218;2024-02-16T07:55:14;25.20;;;13.70;;
75550;SDS011;65071;53.082;18.218;2024-02-16T07:57:40;17.10;;;9.90;;
75550;SDS011;65071;53.082;18.218;2024-02-16T08:00:07;24.20;;;13.00;;
75550;SDS011;65071;53.082;18.218;2024-02-16T08:02:34;21.50;;;12.10;;
75550;SDS011;65071;53.082;18.218;2024-02-16T08:05:00;21.50;;;12.10;;
75550;SDS011;65071;53.082;18.218;2024-02-16T08:07:26;20.30;;;12.80;;
75550;SDS011;65071;53.082;18.218;2024-02-16T08:09:53;22.90;;;12.70;;
75550;SDS011;65071;53.082;18.218;2024-02-16T08:12:19;21.60;;;12.30;;
75550;SDS011;65071;53.082;18.218;2024-02-16T08:14:47;22.60;;;13.40;;
75550;SDS011;65071;53.082;18.218;2024-02-16T08:17:16;16.90;;;9.90;;
75550;SDS011;65071;53.082;18.218;2024-02-16T08:19:42;20.60;;;11.70;;
75550;SDS011;65071;53.082;18.218;2024-02-16T08:22:08;21.00;;;11.40;;
75550;SDS011;65071;53.082;18.218;2024-02-16T08:24:35;18.70;;;10.90;;
75550;SDS011;65071;53.082;18.218;2024-02-16T08:27:03;20.00;;;11.50;;
75550;SDS011;65071;53.082;18.218;2024-02-16T08:29:30;19.70;;;10.70;;
75550;SDS011;65071;53.082;18.218;2024-02-16T08:31:56;20.60;;;11.80;;
75550;SDS011;65071;53.082;18.218;2024-02-16T08:34:23;18.50;;;11.60;;
75550;SDS011;65071;53.082;18.218;2024-02-16T08:36:52;21.60;;;12.70;;
75550;SDS011;65071;53.082;18.218;2024-02-16T08:39:18;21.10;;;12.30;;
75550;SDS011;65071;53.082;18.218;2024-02-16T08:41:46;18.10;;;11.60;;
75550;SDS011;65071;53.082;18.218;2024-02-16T08:44:14;14.30;;;8.40;;
75550;SDS011;65071;53.082;18.218;2024-02-16T08:46:41;18.90;;;11.60;;
75550;SDS011;65071;53.082;18.218;2024-02-16T08:49:07;18.20;;;11.30;;
75550;SDS011;65071;53.082;18.218;2024-02-16T08:51:35;14.70;;;9.10;;
75550;SDS011;65071;53.082;18.218;2024-02-16T08:54:02;16.70;;;11.00;;
75550;SDS011;65071;53.082;18.218;2024-02-16T08:56:30;16.10;;;8.80;;
75550;SDS011;65071;53.082;18.218;2024-02-16T08:58:56;19.00;;;12.00;;
75550;SDS011;65071;53.082;18.218;2024-02-16T09:03:56;15.50;;;9.90;;
75550;SDS011;65071;53.082;18.218;2024-02-16T09:06:22;17.00;;;10.00;;
75550;SDS011;65071;53.082;18.218;2024-02-16T09:08:48;17.40;;;10.30;;
75550;SDS011;65071;53.082;18.218;2024-02-16T09:11:15;20.00;;;11.40;;
75550;SDS011;65071;53.082;18.218;2024-02-16T09:13:41;18.60;;;10.80;;
75550;SDS011;65071;53.082;18.218;2024-02-16T09:16:07;17.30;;;9.60;;
75550;SDS011;65071;53.082;18.218;2024-02-16T09:18:34;16.90;;;10.30;;
75550;SDS011;65071;53.082;18.218;2024-02-16T09:21:00;17.20;;;10.70;;
75550;SDS011;65071;53.082;18.218;2024-02-16T09:23:26;16.90;;;9.80;;
75550;SDS011;65071;53.082;18.218;2024-02-16T09:25:53;15.70;;;9.50;;
75550;SDS011;65071;53.082;18.218;2024-02-16T09:28:20;16.20;;;9.90;;
75550;SDS011;65071;53.082;18.218;2024-02-16T09:30:51;13.30;;;8.10;;
75550;SDS011;65071;53.082;18.218;2024-02-16T09:33:18;16.80;;;10.10;;
75550;SDS011;65071;53.082;18.218;2024-02-16T09:35:44;16.60;;;10.30;;
75550;SDS011;65071;53.082;18.218;2024-02-16T09:38:10;18.40;;;10.80;;
75550;SDS011;65071;53.082;18.218;2024-02-16T09:40:37;13.90;;;9.50;;
75550;SDS011;65071;53.082;18.218;2024-02-16T09:43:03;14.30;;;9.40;;
75550;SDS011;65071;53.082;18.218;2024-02-16T09:45:30;16.80;;;9.70;;
75550;SDS011;65071;53.082;18.218;2024-02-16T09:47:57;13.00;;;8.30;;
75550;SDS011;65071;53.082;18.218;2024-02-16T09:50:24;15.60;;;9.00;;
75550;SDS011;65071;53.082;18.218;2024-02-16T09:52:52;15.40;;;9.90;;
75550;SDS011;65071;53.082;18.218;2024-02-16T09:55:20;13.80;;;9.30;;
75550;SDS011;65071;53.082;18.218;2024-02-16T10:00:26;13.30;;;7.60;;
75550;SDS011;65071;53.082;18.218;2024-02-16T10:02:54;13.70;;;8.00;;
75550;SDS011;65071;53.082;18.218;2024-02-16T10:05:21;13.10;;;8.10;;
75550;SDS011;65071;53.082;18.218;2024-02-16T10:07:47;15.10;;;8.60;;
75550;SDS011;65071;53.082;18.218;2024-02-16T10:10:24;13.90;;;8.40;;
75550;SDS011;65071;53.082;18.218;2024-02-16T10:13:04;13.90;;;8.70;;
75550;SDS011;65071;53.082;18.218;2024-02-16T10:15:34;14.90;;;9.10;;
75550;SDS011;65071;53.082;18.218;2024-02-16T10:18:02;15.30;;;9.40;;
75550;SDS011;65071;53.082;18.218;2024-02-16T10:20:30;17.20;;;9.50;;
75550;SDS011;65071;53.082;18.218;2024-02-16T10:25:30;13.10;;;7.80;;
75550;SDS011;65071;53.082;18.218;2024-02-16T10:27:57;14.20;;;8.90;;
75550;SDS011;65071;53.082;18.218;2024-02-16T10:30:29;14.90;;;9.40;;
75550;SDS011;65071;53.082;18.218;2024-02-16T10:32:57;13.70;;;9.30;;
75550;SDS011;65071;53.082;18.218;2024-02-16T10:35:25;12.80;;;8.00;;
75550;SDS011;65071;53.082;18.218;2024-02-16T10:37:55;13.80;;;9.30;;
75550;SDS011;65071;53.082;18.218;2024-02-16T10:40:23;15.90;;;9.60;;
75550;SDS011;65071;53.082;18.218;2024-02-16T10:42:50;17.10;;;10.20;;
75550;SDS011;65071;53.082;18.218;2024-02-16T10:45:20;15.80;;;9.40;;
75550;SDS011;65071;53.082;18.218;2024-02-16T10:47:47;17.10;;;10.00;;
75550;SDS011;65071;53.082;18.218;2024-02-16T10:50:15;16.50;;;10.00;;
75550;SDS011;65071;53.082;18.218;2024-02-16T10:52:42;14.20;;;9.50;;
75550;SDS011;65071;53.082;18.218;2024-02-16T10:55:13;16.00;;;9.80;;
75550;SDS011;65071;53.082;18.218;2024-02-16T10:57:41;13.90;;;9.30;;
75550;SDS011;65071;53.082;18.218;2024-02-16T11:00:08;13.70;;;8.00;;
75550;SDS011;65071;53.082;18.218;2024-02-16T11:05:45;11.90;;;7.30;;
75550;SDS011;65071;53.082;18.218;2024-02-16T11:08:15;13.80;;;8.50;;
75550;SDS011;65071;53.082;18.218;2024-02-16T11:13:15;14.00;;;8.50;;
75550;SDS011;65071;53.082;18.218;2024-02-16T11:15:48;13.40;;;7.80;;
75550;SDS011;65071;53.082;18.218;2024-02-16T11:18:29;11.70;;;7.10;;
75550;SDS011;65071;53.082;18.218;2024-02-16T11:21:00;14.10;;;8.50;;
75550;SDS011;65071;53.082;18.218;2024-02-16T11:23:28;9.60;;;6.60;;
75550;SDS011;65071;53.082;18.218;2024-02-16T11:28:33;12.40;;;7.90;;
75550;SDS011;65071;53.082;18.218;2024-02-16T11:31:00;14.90;;;8.30;;
75550;SDS011;65071;53.082;18.218;2024-02-16T11:33:28;15.30;;;8.20;;
75550;SDS011;65071;53.082;18.218;2024-02-16T11:35:58;13.30;;;8.70;;
75550;SDS011;65071;53.082;18.218;2024-02-16T11:38:32;13.90;;;9.00;;
75550;SDS011;65071;53.082;18.218;2024-02-16T11:41:01;13.30;;;7.50;;
75550;SDS011;65071;53.082;18.218;2024-02-16T11:43:31;13.60;;;7.90;;
75550;SDS011;65071;53.082;18.218;2024-02-16T11:48:33;11.80;;;7.40;;
75550;SDS011;65071;53.082;18.218;2024-02-16T11:51:00;13.80;;;8.20;;
75550;SDS011;65071;53.082;18.218;2024-02-16T11:53:28;13.40;;;8.80;;
75550;SDS011;65071;53.082;18.218;2024-02-16T11:55:57;14.60;;;8.80;;
75550;SDS011;65071;53.082;18.218;2024-02-16T11:58:24;10.70;;;6.20;;
75550;SDS011;65071;53.082;18.218;2024-02-16T12:00:51;14.30;;;8.20;;
75550;SDS011;65071;53.082;18.218;2024-02-16T12:03:18;13.80;;;8.80;;
75550;SDS011;65071;53.082;18.218;2024-02-16T12:05:51;15.10;;;9.90;;
75550;SDS011;65071;53.082;18.218;2024-02-16T12:08:24;14.50;;;9.20;;
75550;SDS011;65071;53.082;18.218;2024-02-16T12:10:59;15.50;;;9.80;;
75550;SDS011;65071;53.082;18.218;2024-02-16T12:13:25;13.60;;;9.00;;
75550;SDS011;65071;53.082;18.218;2024-02-16T12:15:52;13.20;;;8.50;;
75550;SDS011;65071;53.082;18.218;2024-02-16T12:23:23;14.40;;;9.30;;
75550;SDS011;65071;53.082;18.218;2024-02-16T12:25:49;13.60;;;8.60;;
75550;SDS011;65071;53.082;18.218;2024-02-16T12:28:16;13.90;;;8.90;;
75550;SDS011;65071;53.082;18.218;2024-02-16T12:30:42;13.00;;;8.60;;
75550;SDS011;65071;53.082;18.218;2024-02-16T12:33:08;13.50;;;7.10;;
75550;SDS011;65071;53.082;18.218;2024-02-16T12:35:35;12.60;;;8.20;;
75550;SDS011;65071;53.082;18.218;2024-02-16T12:38:01;14.90;;;10.00;;
75550;SDS011;65071;53.082;18.218;2024-02-16T12:40:27;15.30;;;8.50;;
75550;SDS011;65071;53.082;18.218;2024-02-16T12:42:55;15.20;;;9.60;;
75550;SDS011;65071;53.082;18.218;2024-02-16T12:45:21;15.60;;;8.90;;
75550;SDS011;65071;53.082;18.218;2024-02-16T12:47:48;14.60;;;8.30;;
75550;SDS011;65071;53.082;18.218;2024-02-16T12:50:16;14.50;;;8.90;;
75550;SDS011;65071;53.082;18.218;2024-02-16T12:52:44;13.70;;;8.70;;
75550;SDS011;65071;53.082;18.218;2024-02-16T12:55:10;14.80;;;9.30;;
75550;SDS011;65071;53.082;18.218;2024-02-16T12:57:37;13.70;;;8.70;;
75550;SDS011;65071;53.082;18.218;2024-02-16T13:00:04;16.40;;;10.10;;
75550;SDS011;65071;53.082;18.218;2024-02-16T13:02:31;14.70;;;9.30;;
75550;SDS011;65071;53.082;18.218;2024-02-16T13:04:57;11.90;;;7.90;;
75550;SDS011;65071;53.082;18.218;2024-02-16T13:07:24;14.70;;;9.90;;
75550;SDS011;65071;53.082;18.218;2024-02-16T13:09:51;14.30;;;7.40;;
75550;SDS011;65071;53.082;18.218;2024-02-16T13:12:19;14.20;;;9.00;;
75550;SDS011;65071;53.082;18.218;2024-02-16T13:14:48;12.90;;;7.20;;
75550;SDS011;65071;53.082;18.218;2024-02-16T13:17:14;16.10;;;8.90;;
75550;SDS011;65071;53.082;18.218;2024-02-16T13:19:41;12.40;;;8.00;;
75550;SDS011;65071;53.082;18.218;2024-02-16T13:22:07;12.00;;;7.60;;
75550;SDS011;65071;53.082;18.218;2024-02-16T13:24:33;11.80;;;7.00;;
75550;SDS011;65071;53.082;18.218;2024-02-16T13:27:00;10.70;;;7.10;;
75550;SDS011;65071;53.082;18.218;2024-02-16T13:29:27;13.70;;;8.00;;
75550;SDS011;65071;53.082;18.218;2024-02-16T13:31:53;12.80;;;6.70;;
75550;SDS011;65071;53.082;18.218;2024-02-16T13:34:19;10.30;;;5.90;;
75550;SDS011;65071;53.082;18.218;2024-02-16T13:36:46;12.50;;;8.10;;
75550;SDS011;65071;53.082;18.218;2024-02-16T13:39:12;13.30;;;7.10;;
75550;SDS011;65071;53.082;18.218;2024-02-16T13:41:40;11.50;;;6.90;;
75550;SDS011;65071;53.082;18.218;2024-02-16T13:44:06;12.30;;;7.10;;
75550;SDS011;65071;53.082;18.218;2024-02-16T13:46:33;12.30;;;7.20;;
75550;SDS011;65071;53.082;18.218;2024-02-16T13:48:59;12.20;;;7.80;;
75550;SDS011;65071;53.082;18.218;2024-02-16T13:51:25;12.50;;;6.40;;
75550;SDS011;65071;53.082;18.218;2024-02-16T13:53:51;10.70;;;6.30;;
75550;SDS011;65071;53.082;18.218;2024-02-16T13:56:19;10.60;;;5.70;;
75550;SDS011;65071;53.082;18.218;2024-02-16T13:58:45;11.10;;;6.50;;
75550;SDS011;65071;53.082;18.218;2024-02-16T14:01:13;12.20;;;7.30;;
75550;SDS011;65071;53.082;18.218;2024-02-16T14:03:40;11.10;;;6.70;;
75550;SDS011;65071;53.082;18.218;2024-02-16T14:06:06;10.10;;;6.70;;
75550;SDS011;65071;53.082;18.218;2024-02-16T14:11:02;13.60;;;7.10;;
75550;SDS011;65071;53.082;18.218;2024-02-16T14:13:28;14.00;;;8.10;;
75550;SDS011;65071;53.082;18.218;2024-02-16T14:15:55;12.60;;;7.90;;
75550;SDS011;65071;53.082;18.218;2024-02-16T14:18:22;10.90;;;6.30;;
75550;SDS011;65071;53.082;18.218;2024-02-16T14:20:48;9.80;;;6.40;;
75550;SDS011;65071;53.082;18.218;2024-02-16T14:23:15;15.90;;;8.60;;
75550;SDS011;65071;53.082;18.218;2024-02-16T14:25:41;11.90;;;7.70;;
75550;SDS011;65071;53.082;18.218;2024-02-16T14:28:07;11.70;;;6.60;;
75550;SDS011;65071;53.082;18.218;2024-02-16T14:30:34;10.70;;;7.00;;
75550;SDS011;65071;53.082;18.218;2024-02-16T14:33:00;13.70;;;7.90;;
75550;SDS011;65071;53.082;18.218;2024-02-16T14:35:30;13.90;;;7.90;;
75550;SDS011;65071;53.082;18.218;2024-02-16T14:37:57;13.60;;;7.40;;